Time;durP1;ratioP1;P1;durP2;ratioP2;P2;SDS_P1;SDS_P2;PMS_P1;PMS_P2;Temp;Humidity;BMP_temperature;BMP_pressure;BME280_temperature;BME280_humidity;BME280_pressure;Samples;Min_cycle;Max_cycle;Signal;HPM_P1;HPM_P2
2021/12/22 00:00:55;;;;;;;49.53;31.07;;;;;;;;;;5010985;28;20026;-64
2021/12/22 00:03:21;;;;;;;45.10;29.23;;;;;;;;;;5010697;28;20040;-64
2021/12/22 00:05:48;;;;;;;50.97;30.27;;;;;;;;;;5011434;28;20044;-64
2021/12/22 00:08:17;;;;;;;51.37;31.77;;;;;;;;;;5010737;28;20133;-64
2021/12/22 00:10:44;;;;;;;48.57;29.73;;;;;;;;;;5011054;28;20026;-64
2021/12/22 00:13:11;;;;;;;49.87;30.10;;;;;;;;;;5010844;28;20046;-64
2021/12/22 00:21:44;;;;;;;53.67;31.73;;;;;;;;;;5004208;28;20506;-64
2021/12/22 00:24:10;;;;;;;54.90;33.93;;;;;;;;;;5012350;28;20038;-64
2021/12/22 00:26:36;;;;;;;63.07;37.23;;;;;;;;;;5010264;28;20018;-64
2021/12/22 00:29:03;;;;;;;57.60;34.80;;;;;;;;;;5009858;28;20049;-65
2021/12/22 00:31:29;;;;;;;55.53;33.80;;;;;;;;;;5007732;28;20387;-65
2021/12/22 00:33:57;;;;;;;59.10;34.53;;;;;;;;;;5005679;28;20033;-65
2021/12/22 00:36:25;;;;;;;54.30;34.70;;;;;;;;;;5008115;28;20372;-65
2021/12/22 00:38:52;;;;;;;57.63;34.73;;;;;;;;;;5015116;28;20488;-65
2021/12/22 00:41:18;;;;;;;54.40;33.27;;;;;;;;;;5012009;28;20180;-65
2021/12/22 00:43:44;;;;;;;51.67;32.87;;;;;;;;;;5007360;28;20543;-65
2021/12/22 00:46:12;;;;;;;53.17;33.07;;;;;;;;;;4992932;28;20041;-65
2021/12/22 00:48:39;;;;;;;57.07;35.43;;;;;;;;;;5013544;28;20038;-65
2021/12/22 00:51:05;;;;;;;58.37;34.67;;;;;;;;;;5008573;28;20479;-65
2021/12/22 00:53:31;;;;;;;58.80;34.93;;;;;;;;;;5014113;28;20037;-65
2021/12/22 00:55:57;;;;;;;51.93;32.63;;;;;;;;;;5014011;28;20022;-65
2021/12/22 00:58:23;;;;;;;53.57;33.43;;;;;;;;;;5012421;28;20537;-65
2021/12/22 01:00:49;;;;;;;58.57;34.97;;;;;;;;;;5013334;28;20373;-65
2021/12/22 01:03:16;;;;;;;54.83;32.07;;;;;;;;;;5014886;28;20571;-65
2021/12/22 01:05:42;;;;;;;57.90;32.80;;;;;;;;;;5013320;28;20034;-65
2021/12/22 01:08:08;;;;;;;60.07;34.53;;;;;;;;;;5013270;28;20034;-65
2021/12/22 01:10:35;;;;;;;52.50;32.47;;;;;;;;;;5013891;28;20045;-65
2021/12/22 01:13:03;;;;;;;56.67;32.77;;;;;;;;;;5011451;28;20129;-65
2021/12/22 01:15:29;;;;;;;55.40;33.83;;;;;;;;;;5012460;28;20026;-65
2021/12/22 01:18:14;;;;;;;59.73;34.53;;;;;;;;;;5014811;28;20029;-65
2021/12/22 01:23:22;;;;;;;51.90;32.53;;;;;;;;;;5014930;28;20053;-65
2021/12/22 01:25:49;;;;;;;55.80;32.63;;;;;;;;;;5009204;28;20399;-65
2021/12/22 01:28:16;;;;;;;59.57;34.20;;;;;;;;;;5012112;28;20053;-65
2021/12/22 01:30:44;;;;;;;56.40;33.47;;;;;;;;;;5013082;28;20034;-65
2021/12/22 01:33:11;;;;;;;54.47;33.87;;;;;;;;;;5006903;28;20041;-66
2021/12/22 01:35:37;;;;;;;58.93;35.03;;;;;;;;;;5012135;28;20467;-66
2021/12/22 01:38:03;;;;;;;53.70;33.77;;;;;;;;;;4996091;28;20041;-65
2021/12/22 01:40:30;;;;;;;58.97;35.53;;;;;;;;;;5014897;28;20033;-66
2021/12/22 01:42:56;;;;;;;57.90;35.70;;;;;;;;;;5014482;28;20021;-65
2021/12/22 01:51:25;;;;;;;63.73;35.80;;;;;;;;;;5012172;28;20041;-65
2021/12/22 01:53:51;;;;;;;58.90;35.50;;;;;;;;;;5014868;28;20403;-65
2021/12/22 01:56:29;;;;;;;56.73;35.27;;;;;;;;;;5010637;28;20457;-65
2021/12/22 01:58:56;;;;;;;59.10;36.00;;;;;;;;;;5013765;28;20032;-65
2021/12/22 02:01:22;;;;;;;61.50;37.57;;;;;;;;;;5013262;28;20044;-65
2021/12/22 02:03:49;;;;;;;66.43;37.70;;;;;;;;;;5011608;28;20391;-65
2021/12/22 02:06:15;;;;;;;58.40;35.03;;;;;;;;;;5010806;28;20085;-65
2021/12/22 02:08:44;;;;;;;61.77;36.37;;;;;;;;;;5011998;28;20049;-65
2021/12/22 02:11:10;;;;;;;67.70;37.17;;;;;;;;;;5012520;28;20045;-65
2021/12/22 02:13:40;;;;;;;61.37;37.27;;;;;;;;;;5011501;28;20034;-65
2021/12/22 02:16:09;;;;;;;64.33;38.17;;;;;;;;;;5013100;28;20050;-65
2021/12/22 02:18:36;;;;;;;60.63;37.90;;;;;;;;;;5012659;28;20030;-65
2021/12/22 02:21:03;;;;;;;60.67;37.43;;;;;;;;;;5013466;28;20113;-65
2021/12/22 02:23:29;;;;;;;61.77;38.40;;;;;;;;;;5012172;28;20505;-65
2021/12/22 02:26:01;;;;;;;61.87;36.87;;;;;;;;;;5012841;28;20026;-65
2021/12/22 02:28:31;;;;;;;60.30;36.70;;;;;;;;;;5012004;28;20428;-65
2021/12/22 02:30:57;;;;;;;57.23;35.70;;;;;;;;;;5010656;28;20038;-65
2021/12/22 02:33:26;;;;;;;63.13;34.97;;;;;;;;;;5017075;28;20029;-65
2021/12/22 02:36:40;;;;;;;59.60;35.67;;;;;;;;;;5006586;28;20399;-64
2021/12/22 02:38:41;;;;;;;61.53;37.97;;;;;;;;;;4994729;28;20116;-65
2021/12/22 02:41:09;;;;;;;62.07;36.10;;;;;;;;;;5009357;28;20030;-65
2021/12/22 02:43:43;;;;;;;56.50;35.60;;;;;;;;;;5007724;28;20030;-65
2021/12/22 02:46:10;;;;;;;63.55;36.50;;;;;;;;;;5009268;28;20093;-64
2021/12/22 02:48:36;;;;;;;61.30;35.97;;;;;;;;;;5005389;28;20411;-64
2021/12/22 02:51:02;;;;;;;52.90;33.70;;;;;;;;;;5009696;28;20394;-65
2021/12/22 02:53:45;;;;;;;64.00;35.83;;;;;;;;;;4996833;28;20026;-64
2021/12/22 03:04:12;;;;;;;62.50;36.50;;;;;;;;;;5007569;28;20429;-65
2021/12/22 03:09:18;;;;;;;57.23;35.20;;;;;;;;;;5010965;28;20037;-65
2021/12/22 03:11:45;;;;;;;60.93;36.87;;;;;;;;;;5009692;28;20186;-65
2021/12/22 03:14:11;;;;;;;56.13;35.20;;;;;;;;;;5012235;28;20038;-65
2021/12/22 03:16:43;;;;;;;63.50;37.37;;;;;;;;;;5011270;28;20022;-65
2021/12/22 03:19:10;;;;;;;60.63;36.77;;;;;;;;;;5012500;28;20495;-65
2021/12/22 03:21:37;;;;;;;63.67;36.50;;;;;;;;;;5010106;28;20461;-65
2021/12/22 03:24:03;;;;;;;59.37;37.50;;;;;;;;;;4990456;28;20022;-65
2021/12/22 03:26:29;;;;;;;62.00;36.33;;;;;;;;;;5009862;28;20510;-65
2021/12/22 03:28:55;;;;;;;60.90;35.63;;;;;;;;;;5011947;28;20034;-65
2021/12/22 03:31:22;;;;;;;53.33;34.77;;;;;;;;;;5010682;28;20107;-65
2021/12/22 03:33:48;;;;;;;59.37;36.57;;;;;;;;;;5009756;28;20032;-65
2021/12/22 03:36:14;;;;;;;55.83;36.13;;;;;;;;;;5008037;28;20079;-65
2021/12/22 03:38:40;;;;;;;60.70;36.83;;;;;;;;;;5012810;28;20032;-65
2021/12/22 03:41:07;;;;;;;59.53;35.53;;;;;;;;;;5010813;28;20565;-65
2021/12/22 03:43:34;;;;;;;58.97;35.67;;;;;;;;;;5011895;28;20740;-64
2021/12/22 03:46:00;;;;;;;57.57;34.30;;;;;;;;;;5010680;28;20084;-64
2021/12/22 03:48:26;;;;;;;53.67;33.03;;;;;;;;;;5010281;28;20391;-65
2021/12/22 03:50:53;;;;;;;56.57;34.80;;;;;;;;;;5011532;28;20130;-65
2021/12/22 03:53:19;;;;;;;52.73;32.50;;;;;;;;;;5010870;28;20499;-65
2021/12/22 03:55:45;;;;;;;55.70;33.53;;;;;;;;;;4990425;28;20423;-65
2021/12/22 03:58:11;;;;;;;55.43;32.87;;;;;;;;;;5011061;28;20368;-65
2021/12/22 04:00:38;;;;;;;51.30;32.90;;;;;;;;;;5009450;28;20040;-64
2021/12/22 04:03:05;;;;;;;54.17;31.33;;;;;;;;;;5010110;28;20027;-65
2021/12/22 04:05:31;;;;;;;51.87;31.97;;;;;;;;;;5009642;28;20399;-64
2021/12/22 04:07:58;;;;;;;53.40;33.00;;;;;;;;;;5011046;28;20041;-65
2021/12/22 04:10:25;;;;;;;55.23;32.83;;;;;;;;;;5009492;28;20037;-64
2021/12/22 04:12:53;;;;;;;53.63;33.13;;;;;;;;;;5010969;28;20107;-64
2021/12/22 04:15:19;;;;;;;58.93;33.63;;;;;;;;;;5010973;28;20431;-64
2021/12/22 04:17:46;;;;;;;55.40;32.87;;;;;;;;;;5009618;28;20112;-64
2021/12/22 04:20:12;;;;;;;53.67;33.30;;;;;;;;;;5011657;28;20684;-64
2021/12/22 04:22:38;;;;;;;50.80;31.77;;;;;;;;;;5015246;28;20058;-65
2021/12/22 04:25:06;;;;;;;54.27;32.63;;;;;;;;;;4997939;28;20034;-64
2021/12/22 04:27:32;;;;;;;51.70;32.30;;;;;;;;;;5015946;28;20552;-64
2021/12/22 04:29:58;;;;;;;52.77;32.87;;;;;;;;;;5015063;28;20038;-64
2021/12/22 04:32:24;;;;;;;51.67;32.93;;;;;;;;;;5012947;28;20033;-64
2021/12/22 04:34:50;;;;;;;53.90;29.97;;;;;;;;;;5014907;28;20077;-65
2021/12/22 04:37:16;;;;;;;54.87;31.67;;;;;;;;;;5015261;28;20022;-64
2021/12/22 04:39:42;;;;;;;51.20;31.33;;;;;;;;;;5014409;28;20512;-64
2021/12/22 04:42:08;;;;;;;53.60;30.70;;;;;;;;;;5009107;28;20026;-65
2021/12/22 04:44:34;;;;;;;49.07;29.50;;;;;;;;;;5015262;28;20026;-64
2021/12/22 04:53:15;;;;;;;45.37;29.87;;;;;;;;;;5010300;28;20056;-66
2021/12/22 04:55:41;;;;;;;34.03;22.00;;;;;;;;;;5014211;28;20021;-65
2021/12/22 04:58:07;;;;;;;45.87;29.93;;;;;;;;;;5014015;28;20052;-65
2021/12/22 05:00:35;;;;;;;44.30;28.57;;;;;;;;;;5015012;28;20087;-65
2021/12/22 05:03:01;;;;;;;43.83;28.83;;;;;;;;;;5010447;28;20030;-65
2021/12/22 05:05:28;;;;;;;48.57;30.20;;;;;;;;;;5011981;28;20498;-65
2021/12/22 05:07:54;;;;;;;50.80;29.37;;;;;;;;;;5009844;28;20025;-65
2021/12/22 05:10:20;;;;;;;42.57;28.73;;;;;;;;;;5013816;28;20030;-64
2021/12/22 05:12:46;;;;;;;39.93;27.03;;;;;;;;;;5010620;28;20495;-64
2021/12/22 05:15:13;;;;;;;41.87;28.43;;;;;;;;;;4999956;28;20030;-65
2021/12/22 05:20:08;;;;;;;41.00;28.00;;;;;;;;;;5015244;28;20094;-65
2021/12/22 05:22:34;;;;;;;44.27;29.53;;;;;;;;;;5013891;28;20105;-65
2021/12/22 05:25:02;;;;;;;44.83;29.87;;;;;;;;;;5011085;28;20037;-65
2021/12/22 05:27:29;;;;;;;43.73;29.23;;;;;;;;;;5012900;28;20431;-65
2021/12/22 05:29:55;;;;;;;44.97;28.80;;;;;;;;;;5013037;28;20574;-65
2021/12/22 05:32:25;;;;;;;44.97;28.90;;;;;;;;;;5014111;28;20038;-65
2021/12/22 05:34:52;;;;;;;43.27;29.13;;;;;;;;;;5012221;28;20116;-64
2021/12/22 05:37:18;;;;;;;43.53;28.60;;;;;;;;;;5012863;28;20022;-65
2021/12/22 05:39:44;;;;;;;47.10;28.63;;;;;;;;;;5009185;28;20037;-64
2021/12/22 05:42:10;;;;;;;41.10;26.60;;;;;;;;;;5010709;28;20108;-65
2021/12/22 05:44:36;;;;;;;46.13;30.00;;;;;;;;;;4996304;28;20373;-65
2021/12/22 05:47:02;;;;;;;48.60;28.90;;;;;;;;;;5013061;28;20060;-65
2021/12/22 05:49:28;;;;;;;46.93;29.90;;;;;;;;;;5013874;28;20038;-65
2021/12/22 05:51:55;;;;;;;47.67;29.60;;;;;;;;;;4997848;28;20026;-65
2021/12/22 05:54:21;;;;;;;45.27;29.57;;;;;;;;;;4995474;28;20021;-65
2021/12/22 05:56:47;;;;;;;48.43;30.00;;;;;;;;;;5009791;28;20022;-65
2021/12/22 05:59:13;;;;;;;50.47;31.33;;;;;;;;;;5009147;28;20030;-65
2021/12/22 06:01:39;;;;;;;43.73;29.17;;;;;;;;;;5008109;28;20041;-65
2021/12/22 06:04:06;;;;;;;43.77;28.37;;;;;;;;;;5010398;28;20475;-65
2021/12/22 06:06:32;;;;;;;43.90;28.97;;;;;;;;;;5005055;28;20395;-65
2021/12/22 06:08:58;;;;;;;48.67;29.77;;;;;;;;;;5008493;28;20404;-65
2021/12/22 06:11:24;;;;;;;46.97;29.67;;;;;;;;;;5009546;28;20081;-65
2021/12/22 06:13:50;;;;;;;48.10;30.30;;;;;;;;;;5007763;28;20056;-65
2021/12/22 06:16:16;;;;;;;48.80;30.50;;;;;;;;;;5009646;28;20049;-65
2021/12/22 06:18:44;;;;;;;52.43;31.43;;;;;;;;;;5009589;28;20164;-65
2021/12/22 06:21:11;;;;;;;48.13;30.53;;;;;;;;;;5007145;28;20028;-65
2021/12/22 06:23:37;;;;;;;46.30;29.40;;;;;;;;;;5011140;28;20034;-65
2021/12/22 06:26:03;;;;;;;45.00;28.07;;;;;;;;;;5008827;28;20029;-65
2021/12/22 06:28:30;;;;;;;41.80;28.07;;;;;;;;;;5011501;28;20046;-65
2021/12/22 06:30:56;;;;;;;40.57;26.57;;;;;;;;;;5009303;28;20095;-65
2021/12/22 06:33:22;;;;;;;42.93;27.67;;;;;;;;;;5009369;28;20034;-65
2021/12/22 06:35:48;;;;;;;43.07;29.70;;;;;;;;;;5007025;28;20022;-64
2021/12/22 06:38:15;;;;;;;46.00;29.13;;;;;;;;;;5007022;28;20041;-64
2021/12/22 06:40:42;;;;;;;43.20;27.70;;;;;;;;;;5005498;28;20494;-65
2021/12/22 06:43:08;;;;;;;46.20;29.40;;;;;;;;;;5007960;28;20096;-65
2021/12/22 06:45:34;;;;;;;48.93;28.70;;;;;;;;;;5006758;28;20088;-65
2021/12/22 06:48:00;;;;;;;47.20;29.50;;;;;;;;;;5009317;28;20030;-65
2021/12/22 06:50:26;;;;;;;44.40;28.43;;;;;;;;;;5004140;28;20030;-65
2021/12/22 06:52:52;;;;;;;46.30;29.60;;;;;;;;;;5007558;28;20455;-65
2021/12/22 06:55:18;;;;;;;44.07;27.97;;;;;;;;;;5007146;28;20068;-64
2021/12/22 06:57:44;;;;;;;44.33;29.97;;;;;;;;;;5007613;28;20116;-64
2021/12/22 07:00:12;;;;;;;40.73;28.27;;;;;;;;;;5007080;28;20080;-65
2021/12/22 07:02:39;;;;;;;50.40;30.43;;;;;;;;;;4988525;28;20116;-65
2021/12/22 07:05:06;;;;;;;45.00;29.30;;;;;;;;;;4990251;28;20030;-65
2021/12/22 07:07:32;;;;;;;49.20;28.43;;;;;;;;;;5009665;28;20033;-65
2021/12/22 07:09:58;;;;;;;51.67;30.40;;;;;;;;;;5008936;28;20116;-65
2021/12/22 07:12:24;;;;;;;48.57;30.20;;;;;;;;;;5011509;28;20140;-65
2021/12/22 07:14:50;;;;;;;44.57;28.20;;;;;;;;;;5011661;28;20064;-65
2021/12/22 07:17:16;;;;;;;48.20;29.67;;;;;;;;;;5009581;28;20032;-65
2021/12/22 07:19:42;;;;;;;46.93;31.43;;;;;;;;;;5009335;28;20387;-66
2021/12/22 07:22:08;;;;;;;49.10;30.60;;;;;;;;;;5010176;28;20018;-65
2021/12/22 07:24:34;;;;;;;49.77;31.43;;;;;;;;;;5006938;28;20034;-65
2021/12/22 07:27:00;;;;;;;45.07;29.13;;;;;;;;;;5006596;28;20030;-66
2021/12/22 07:29:26;;;;;;;50.07;30.67;;;;;;;;;;5006753;28;20037;-65
2021/12/22 07:31:52;;;;;;;47.47;30.53;;;;;;;;;;5005609;28;20546;-66
2021/12/22 07:34:28;;;;;;;48.97;30.20;;;;;;;;;;5009443;28;20041;-65
2021/12/22 07:37:04;;;;;;;50.87;30.60;;;;;;;;;;5005906;28;20030;-66
2021/12/22 07:39:30;;;;;;;47.17;28.57;;;;;;;;;;5008240;28;20033;-66
2021/12/22 07:41:56;;;;;;;46.47;30.93;;;;;;;;;;5003598;28;20078;-66
2021/12/22 07:44:22;;;;;;;47.87;32.20;;;;;;;;;;5005053;28;20037;-66
2021/12/22 07:46:48;;;;;;;45.90;31.53;;;;;;;;;;5011428;28;20029;-66
2021/12/22 07:49:14;;;;;;;47.00;31.53;;;;;;;;;;5013931;28;20471;-66
2021/12/22 07:51:40;;;;;;;42.90;29.37;;;;;;;;;;5012973;28;20090;-66
2021/12/22 07:54:06;;;;;;;48.60;31.63;;;;;;;;;;4994359;28;20024;-66
2021/12/22 07:56:32;;;;;;;42.70;29.07;;;;;;;;;;4995921;28;20046;-66
2021/12/22 07:58:58;;;;;;;41.27;28.67;;;;;;;;;;5004980;28;20041;-66
2021/12/22 08:01:24;;;;;;;46.03;29.60;;;;;;;;;;5003941;28;20038;-65
2021/12/22 08:03:50;;;;;;;39.70;29.43;;;;;;;;;;5000014;28;20630;-66
2021/12/22 08:06:16;;;;;;;41.60;28.40;;;;;;;;;;5004225;28;20056;-65
2021/12/22 08:08:42;;;;;;;39.70;29.00;;;;;;;;;;5004684;28;20046;-66
2021/12/22 08:11:08;;;;;;;38.50;28.63;;;;;;;;;;5005520;28;20395;-66
2021/12/22 08:13:35;;;;;;;38.40;28.57;;;;;;;;;;5005638;28;20084;-66
2021/12/22 08:16:01;;;;;;;38.93;28.30;;;;;;;;;;5001808;28;20042;-66
2021/12/22 08:18:27;;;;;;;41.73;28.40;;;;;;;;;;5004228;28;20079;-65
2021/12/22 08:20:53;;;;;;;39.23;28.93;;;;;;;;;;5006325;28;20065;-59
2021/12/22 08:23:19;;;;;;;43.97;29.97;;;;;;;;;;5007907;28;20081;-65
2021/12/22 08:25:49;;;;;;;49.77;30.53;;;;;;;;;;5003331;28;20494;-65
2021/12/22 08:28:15;;;;;;;44.27;30.83;;;;;;;;;;5005057;28;20042;-65
2021/12/22 08:30:42;;;;;;;42.97;29.13;;;;;;;;;;5006937;28;20053;-65
2021/12/22 08:33:20;;;;;;;43.83;29.20;;;;;;;;;;4989862;28;20034;-65
2021/12/22 08:38:50;;;;;;;41.83;28.43;;;;;;;;;;5005302;28;20088;-65
2021/12/22 08:41:27;;;;;;;41.43;28.37;;;;;;;;;;5000724;28;20121;-65
2021/12/22 08:43:54;;;;;;;40.63;27.20;;;;;;;;;;5004460;28;20046;-63
2021/12/22 08:46:21;;;;;;;40.33;27.17;;;;;;;;;;5004802;28;20104;-65
2021/12/22 08:48:47;;;;;;;44.07;28.23;;;;;;;;;;5002903;28;20034;-65
2021/12/22 08:51:13;;;;;;;39.13;25.70;;;;;;;;;;5001829;28;20100;-65
2021/12/22 08:53:40;;;;;;;41.77;25.93;;;;;;;;;;5005890;28;20030;-65
2021/12/22 08:56:06;;;;;;;40.03;25.40;;;;;;;;;;5005221;28;20129;-65
2021/12/22 08:58:32;;;;;;;36.10;24.83;;;;;;;;;;5004381;28;20479;-65
2021/12/22 09:00:58;;;;;;;37.03;25.70;;;;;;;;;;5005456;28;20064;-65
2021/12/22 09:03:24;;;;;;;36.27;24.17;;;;;;;;;;5004178;28;20042;-64
2021/12/22 09:05:50;;;;;;;42.70;25.63;;;;;;;;;;5005918;28;20030;-65
2021/12/22 09:08:17;;;;;;;39.53;26.87;;;;;;;;;;5005293;28;20080;-65
2021/12/22 09:10:43;;;;;;;41.80;27.00;;;;;;;;;;5008510;28;20072;-65
2021/12/22 09:13:09;;;;;;;36.53;26.20;;;;;;;;;;5004986;28;20045;-64
2021/12/22 09:15:36;;;;;;;40.87;26.90;;;;;;;;;;5008998;28;20135;-65
2021/12/22 09:18:02;;;;;;;38.33;26.53;;;;;;;;;;5006292;28;20506;-65
2021/12/22 09:20:29;;;;;;;37.70;24.03;;;;;;;;;;4996339;28;20046;-65
2021/12/22 09:22:55;;;;;;;39.27;25.93;;;;;;;;;;5007517;28;20069;-64
2021/12/22 09:25:21;;;;;;;32.70;24.13;;;;;;;;;;4991105;28;20496;-65
2021/12/22 09:27:48;;;;;;;39.60;27.53;;;;;;;;;;5004595;28;20042;-65
2021/12/22 09:30:14;;;;;;;38.47;28.70;;;;;;;;;;4993280;28;20080;-66
2021/12/22 09:32:40;;;;;;;38.03;27.77;;;;;;;;;;5007035;28;20053;-67
2021/12/22 09:35:06;;;;;;;42.07;28.80;;;;;;;;;;5010442;28;20072;-65
2021/12/22 09:37:32;;;;;;;43.87;29.27;;;;;;;;;;5005330;28;20534;-65
2021/12/22 09:39:58;;;;;;;42.33;29.73;;;;;;;;;;5007628;28;20042;-65
2021/12/22 09:42:24;;;;;;;39.03;28.60;;;;;;;;;;5008501;28;20033;-65
2021/12/22 09:44:51;;;;;;;43.37;29.07;;;;;;;;;;5006750;28;20107;-65
2021/12/22 09:47:26;;;;;;;41.60;30.93;;;;;;;;;;4993072;28;20046;-65
2021/12/22 09:50:08;;;;;;;38.83;29.37;;;;;;;;;;5008266;28;20141;-66
2021/12/22 09:52:34;;;;;;;45.60;30.87;;;;;;;;;;4989239;28;20070;-65
2021/12/22 09:55:01;;;;;;;40.33;29.33;;;;;;;;;;5006882;28;20042;-66
2021/12/22 09:57:28;;;;;;;40.63;28.90;;;;;;;;;;5003894;28;20038;-65
2021/12/22 09:59:55;;;;;;;42.20;29.63;;;;;;;;;;5005667;28;20034;-64
2021/12/22 10:02:22;;;;;;;43.03;30.73;;;;;;;;;;4992884;28;20072;-65
2021/12/22 10:04:49;;;;;;;41.27;29.83;;;;;;;;;;5009799;28;20400;-65
2021/12/22 10:07:20;;;;;;;39.43;30.27;;;;;;;;;;5004859;28;20120;-66
2021/12/22 10:09:46;;;;;;;39.43;29.93;;;;;;;;;;5006061;28;20061;-65
2021/12/22 10:12:26;;;;;;;42.63;29.50;;;;;;;;;;5006389;28;20072;-66
2021/12/22 10:14:57;;;;;;;44.23;29.47;;;;;;;;;;5005772;28;20030;-65
2021/12/22 10:17:34;;;;;;;42.03;29.67;;;;;;;;;;5004404;28;20054;-65
2021/12/22 10:20:03;;;;;;;38.60;26.00;;;;;;;;;;5006749;28;20447;-66
2021/12/22 10:22:30;;;;;;;38.70;26.43;;;;;;;;;;5005219;28;20563;-65
2021/12/22 10:25:08;;;;;;;43.23;26.00;;;;;;;;;;4993830;28;20078;-64
2021/12/22 10:27:34;;;;;;;38.83;25.87;;;;;;;;;;5005401;28;20179;-65
2021/12/22 10:30:00;;;;;;;42.07;26.27;;;;;;;;;;5006080;28;20042;-64
2021/12/22 10:32:26;;;;;;;40.60;27.37;;;;;;;;;;5006679;28;20053;-64
2021/12/22 10:34:54;;;;;;;39.47;27.60;;;;;;;;;;5009141;28;20041;-65
2021/12/22 10:37:50;;;;;;;39.27;25.90;;;;;;;;;;5006386;28;20034;-65
2021/12/22 10:40:23;;;;;;;42.20;25.70;;;;;;;;;;4994497;28;20042;-65
2021/12/22 10:42:49;;;;;;;40.90;27.50;;;;;;;;;;5003940;28;20121;-64
2021/12/22 10:45:16;;;;;;;35.73;25.47;;;;;;;;;;5006406;28;20092;-64
2021/12/22 10:50:34;;;;;;;38.17;25.10;;;;;;;;;;5004529;28;20085;-64
2021/12/22 10:53:01;;;;;;;35.67;24.23;;;;;;;;;;5005789;28;20122;-64
2021/12/22 10:55:36;;;;;;;34.00;21.90;;;;;;;;;;5006595;28;20046;-64
2021/12/22 10:58:02;;;;;;;32.17;22.20;;;;;;;;;;5004358;28;20080;-66
2021/12/22 11:00:28;;;;;;;34.27;22.03;;;;;;;;;;5005663;28;20070;-65
2021/12/22 11:03:01;;;;;;;34.80;23.00;;;;;;;;;;5005409;28;20530;-64
2021/12/22 11:05:29;;;;;;;36.67;24.03;;;;;;;;;;5005824;28;20088;-65
2021/12/22 11:07:56;;;;;;;37.33;25.47;;;;;;;;;;4997526;28;20041;-65
2021/12/22 11:10:26;;;;;;;31.70;23.00;;;;;;;;;;5005017;28;20042;-65
2021/12/22 11:19:50;;;;;;;27.05;18.55;;;;;;;;;;4977767;28;20112;-64
2021/12/22 11:22:17;;;;;;;27.73;19.17;;;;;;;;;;4966584;28;20049;-65
2021/12/22 11:24:51;;;;;;;32.07;20.53;;;;;;;;;;4967774;28;20481;-65
2021/12/22 11:27:21;;;;;;;31.90;20.93;;;;;;;;;;4966747;28;20034;-66
2021/12/22 11:29:51;;;;;;;32.73;21.07;;;;;;;;;;4965932;28;20045;-65
2021/12/22 11:32:19;;;;;;;26.97;19.20;;;;;;;;;;4966596;28;20089;-65
2021/12/22 11:34:48;;;;;;;34.20;22.07;;;;;;;;;;4961889;28;20038;-65
2021/12/22 11:37:14;;;;;;;33.87;22.37;;;;;;;;;;4962842;28;20051;-65
2021/12/22 11:39:41;;;;;;;31.10;21.43;;;;;;;;;;4963014;28;20106;-65
2021/12/22 11:42:08;;;;;;;26.33;21.50;;;;;;;;;;4962214;28;20164;-66
2021/12/22 11:44:35;;;;;;;28.77;21.47;;;;;;;;;;4963860;28;20046;-65
2021/12/22 11:47:03;;;;;;;32.83;22.90;;;;;;;;;;4961744;28;20049;-63
2021/12/22 11:49:29;;;;;;;31.20;24.00;;;;;;;;;;4961255;28;20051;-63
2021/12/22 11:51:57;;;;;;;29.80;22.50;;;;;;;;;;4962745;28;20050;-63
2021/12/22 11:54:28;;;;;;;32.50;22.20;;;;;;;;;;4977133;28;20042;-65
2021/12/22 11:56:56;;;;;;;28.93;19.97;;;;;;;;;;4961977;28;20078;-61
2021/12/22 11:59:33;;;;;;;32.70;23.17;;;;;;;;;;4964074;28;20059;-65
2021/12/22 12:02:22;;;;;;;30.47;20.33;;;;;;;;;;4962943;28;20042;-64
2021/12/22 12:04:51;;;;;;;28.60;21.17;;;;;;;;;;4962124;28;20042;-64
2021/12/22 12:07:36;;;;;;;28.23;20.20;;;;;;;;;;4962640;28;20038;-64
2021/12/22 12:10:21;;;;;;;34.42;23.80;;;;;;;;;;4962316;28;20034;-65
2021/12/22 12:12:55;;;;;;;31.38;20.77;;;;;;;;;;4958364;28;20035;-65
2021/12/22 12:15:49;;;;;;;32.03;21.70;;;;;;;;;;4964012;28;20050;-64
2021/12/22 12:21:42;;;;;;;31.25;23.30;;;;;;;;;;4984927;28;20052;-65
2021/12/22 12:23:49;;;;;;;30.73;22.60;;;;;;;;;;4990649;28;20463;-64
2021/12/22 12:26:36;;;;;;;33.50;23.33;;;;;;;;;;5005992;28;20037;-65
2021/12/22 12:29:02;;;;;;;33.33;22.67;;;;;;;;;;5005757;28;20058;-65
2021/12/22 12:31:38;;;;;;;31.30;22.70;;;;;;;;;;5005365;28;20468;-64
2021/12/22 12:34:20;;;;;;;32.50;22.20;;;;;;;;;;5001235;28;20105;-65
2021/12/22 12:39:53;;;;;;;38.90;22.57;;;;;;;;;;4997934;28;20145;-65
2021/12/22 12:42:20;;;;;;;33.83;24.17;;;;;;;;;;5002480;28;20042;-65
2021/12/22 12:44:46;;;;;;;30.13;22.33;;;;;;;;;;5007904;28;20467;-66
2021/12/22 12:47:18;;;;;;;35.33;22.53;;;;;;;;;;5009307;28;20132;-64
2021/12/22 12:49:45;;;;;;;32.23;22.73;;;;;;;;;;5009816;28;20038;-64
2021/12/22 12:52:19;;;;;;;33.40;23.73;;;;;;;;;;5010439;28;20369;-64
2021/12/22 12:54:46;;;;;;;34.95;24.10;;;;;;;;;;5007582;28;20030;-65
2021/12/22 12:57:15;;;;;;;33.47;24.50;;;;;;;;;;5005203;28;20046;-65
2021/12/22 12:59:44;;;;;;;31.33;23.03;;;;;;;;;;5002019;28;20049;-64
2021/12/22 13:02:11;;;;;;;32.13;24.60;;;;;;;;;;5008701;28;20471;-66
2021/12/22 13:04:38;;;;;;;33.90;22.87;;;;;;;;;;5007116;28;20041;-65
2021/12/22 13:07:05;;;;;;;36.57;23.67;;;;;;;;;;5008773;28;20034;-65
2021/12/22 13:09:37;;;;;;;31.03;21.90;;;;;;;;;;5007155;28;20752;-65
2021/12/22 13:17:55;;;;;;;31.50;22.83;;;;;;;;;;5007127;28;20061;-65
2021/12/22 13:20:25;;;;;;;30.80;22.53;;;;;;;;;;5007235;28;20045;-65
2021/12/22 13:22:53;;;;;;;31.27;22.67;;;;;;;;;;5008685;28;20030;-65
2021/12/22 13:25:19;;;;;;;32.13;23.53;;;;;;;;;;5007391;28;20034;-65
2021/12/22 13:27:47;;;;;;;33.07;23.50;;;;;;;;;;5007204;28;20045;-65
2021/12/22 13:30:13;;;;;;;34.13;22.83;;;;;;;;;;4995746;28;20026;-65
2021/12/22 13:32:57;;;;;;;33.10;23.57;;;;;;;;;;5007122;28;20040;-65
2021/12/22 13:35:31;;;;;;;30.83;22.47;;;;;;;;;;4992078;28;20034;-65
2021/12/22 13:37:58;;;;;;;30.30;22.47;;;;;;;;;;5003056;28;20034;-65
2021/12/22 13:40:34;;;;;;;32.53;22.30;;;;;;;;;;5008438;28;20056;-65
2021/12/22 13:43:00;;;;;;;31.73;23.13;;;;;;;;;;5005435;28;20045;-65
2021/12/22 13:45:26;;;;;;;32.43;23.53;;;;;;;;;;5008010;28;20056;-65
2021/12/22 13:47:52;;;;;;;31.70;21.98;;;;;;;;;;4991519;28;20116;-63
2021/12/22 13:50:19;;;;;;;33.20;22.67;;;;;;;;;;5008178;28;20491;-64
2021/12/22 13:52:45;;;;;;;33.07;22.93;;;;;;;;;;5007428;28;20038;-65
2021/12/22 13:55:11;;;;;;;27.67;22.43;;;;;;;;;;5005707;28;20498;-65
2021/12/22 13:57:38;;;;;;;31.57;22.80;;;;;;;;;;5000567;28;20046;-65
2021/12/22 14:00:05;;;;;;;32.53;23.23;;;;;;;;;;5007725;28;20038;-65
2021/12/22 14:02:33;;;;;;;28.60;21.98;;;;;;;;;;5007955;28;20042;-65
2021/12/22 14:05:11;;;;;;;31.63;24.57;;;;;;;;;;5008326;28;20037;-65
2021/12/22 14:07:37;;;;;;;34.23;24.67;;;;;;;;;;5009111;28;20087;-65
2021/12/22 14:10:09;;;;;;;32.93;23.40;;;;;;;;;;5004261;28;20045;-65
2021/12/22 14:12:35;;;;;;;34.70;24.03;;;;;;;;;;5002892;28;20510;-65
2021/12/22 14:15:01;;;;;;;39.00;27.10;;;;;;;;;;5009899;28;20034;-65
2021/12/22 14:17:32;;;;;;;33.40;27.13;;;;;;;;;;5007973;28;20045;-64
2021/12/22 14:20:10;;;;;;;33.90;27.13;;;;;;;;;;5004167;28;20522;-64
2021/12/22 14:22:41;;;;;;;33.27;26.90;;;;;;;;;;5004999;28;20125;-65
2021/12/22 14:25:10;;;;;;;35.87;27.63;;;;;;;;;;5007145;28;20057;-65
2021/12/22 14:27:39;;;;;;;34.60;26.17;;;;;;;;;;5004783;28;20511;-65
2021/12/22 14:30:08;;;;;;;38.60;26.93;;;;;;;;;;5007422;28;20100;-65
2021/12/22 14:32:35;;;;;;;31.87;25.60;;;;;;;;;;5007529;28;20038;-65
2021/12/22 14:35:09;;;;;;;37.23;27.73;;;;;;;;;;4999343;28;20026;-65
2021/12/22 14:37:36;;;;;;;33.03;24.03;;;;;;;;;;5007490;28;20033;-66
2021/12/22 14:40:12;;;;;;;31.67;23.33;;;;;;;;;;5002465;28;20088;-65
2021/12/22 14:42:38;;;;;;;31.43;22.70;;;;;;;;;;5007713;28;20037;-66
2021/12/22 14:45:22;;;;;;;33.20;23.57;;;;;;;;;;4993475;28;20392;-65
2021/12/22 14:48:07;;;;;;;29.43;21.67;;;;;;;;;;5007361;28;20443;-65
2021/12/22 14:50:34;;;;;;;31.97;22.40;;;;;;;;;;5004438;28;20487;-65
2021/12/22 14:53:01;;;;;;;29.40;21.37;;;;;;;;;;5005793;28;20487;-65
2021/12/22 14:55:53;;;;;;;26.87;20.20;;;;;;;;;;5005723;28;20038;-65
2021/12/22 14:58:19;;;;;;;30.07;21.03;;;;;;;;;;4987659;28;20538;-65
2021/12/22 15:00:48;;;;;;;31.33;21.37;;;;;;;;;;5006845;28;20530;-65
2021/12/22 15:03:14;;;;;;;33.13;21.60;;;;;;;;;;5003721;28;20042;-65
2021/12/22 15:05:42;;;;;;;31.87;22.13;;;;;;;;;;4995182;28;20128;-65
2021/12/22 15:08:08;;;;;;;29.97;20.90;;;;;;;;;;5004700;28;20070;-65
2021/12/22 15:16:41;;;;;;;26.33;18.57;;;;;;;;;;4996842;28;20053;-63
2021/12/22 15:19:07;;;;;;;27.63;19.60;;;;;;;;;;5006163;28;20034;-63
2021/12/22 15:21:33;;;;;;;28.47;19.83;;;;;;;;;;5003680;28;20546;-63
2021/12/22 15:23:59;;;;;;;36.53;25.50;;;;;;;;;;5006426;28;20043;-64
2021/12/22 15:26:26;;;;;;;41.80;26.40;;;;;;;;;;5005011;28;20175;-63